الصفحة الرئيسية
METAR-TAF:

METAR-TAF

مطار :

Kédougou, السنغال

دائرة عرض: 12-34N, خط طول: 012-13W, ارتفاع: 178 متر

مراقبة الطقس الحالي

تاريخ ووقت الإصدار 23 دقيقة قبل الساعة 10:00UTC
ريح 4 عقدة من الشرق
درجة الحرارة 34°درجة مئوية
الرطوبة 18%
ضغط 1013 hPa
الرؤية 10 كم أو أكثر
الغيوم لا تقل 1500 م ولا وجود لمزنة ركامية السحاب الأسود

METAR: GOTK 151000Z 10004KT CAVOK 34/06 Q1013

زمن: 10:23 (10:23 UTC)


TAF: مفقودة

أرصاد الطقس والتوقعات من أكثر من 4000 مطار (تقارير الطقس للمطار METAR والتنبؤ بالطقس بالمطارTAF).

المحطات المتاحة هي النقط الصفراء والحمراء على الخريطة.

حرك المؤشر فوق النقطة لمعرفة اسم المحطة.

ثم انقر لمعرفة أرصاد وتوقعات الطقس.

لتغيير الخارطة: اضغط على الأزرار الخضراء مع رمز الصليب الأسود للتكبير. على الزر الأخضر مع شرطة للتصغير، أو على الأسهم الخضراء للخرائط المجاورة.


METAR-TAF: